createdAt,value
2023-02-22T00:01:51.158Z,99580.22
2023-02-22T00:04:21.504Z,99591.59
2023-02-22T00:06:50.159Z,99584.63
2023-02-22T00:09:20.866Z,99592.44
2023-02-22T00:11:48.907Z,99608.25
2023-02-22T00:14:20.580Z,99602.00
2023-02-22T00:16:48.303Z,99599.69
2023-02-22T00:19:16.219Z,99614.88
2023-02-22T00:21:45.050Z,99617.94
2023-02-22T00:24:23.527Z,99626.84
2023-02-22T00:26:58.115Z,99605.41
2023-02-22T00:29:26.226Z,99630.22
2023-02-22T00:31:54.393Z,99636.28
2023-02-22T00:34:24.386Z,99621.47
2023-02-22T00:36:52.289Z,99653.00
2023-02-22T00:39:20.511Z,99640.69
2023-02-22T00:41:48.327Z,99638.16
2023-02-22T00:44:17.210Z,99638.16
2023-02-22T00:46:45.989Z,99646.59
2023-02-22T00:49:13.659Z,99658.22
2023-02-22T00:51:43.103Z,99664.13
2023-02-22T00:54:11.078Z,99676.06
2023-02-22T00:56:39.336Z,99679.78
2023-02-22T00:59:07.205Z,99669.69
2023-02-22T01:01:35.047Z,99674.06
2023-02-22T01:04:02.706Z,99689.09
2023-02-22T01:06:32.047Z,99709.78
2023-02-22T01:08:59.906Z,99721.41
2023-02-22T01:11:27.433Z,99751.25
2023-02-22T01:13:58.007Z,99722.69
2023-02-22T01:16:26.172Z,99749.00
2023-02-22T01:18:56.023Z,99743.91
2023-02-22T01:21:23.849Z,99770.72
2023-02-22T01:23:52.097Z,99745.41
2023-02-22T01:26:20.453Z,99759.41
2023-02-22T01:28:48.304Z,99770.59
2023-02-22T01:31:16.346Z,99783.75
2023-02-22T01:33:45.023Z,99789.94
2023-02-22T01:36:12.709Z,99801.53
2023-02-22T01:38:40.494Z,99807.78
2023-02-22T01:41:08.330Z,99802.25
2023-02-22T01:43:38.016Z,99816.38
2023-02-22T01:46:08.451Z,99817.53
2023-02-22T01:48:41.674Z,99828.78
2023-02-22T01:51:21.334Z,99826.66
2023-02-22T01:53:55.335Z,99812.09
2023-02-22T01:56:23.940Z,99845.75
2023-02-22T01:58:55.474Z,99856.94
2023-02-22T02:01:24.078Z,99856.75
2023-02-22T02:03:52.414Z,99882.34
2023-02-22T02:06:20.126Z,99871.16
2023-02-22T02:09:59.327Z,99888.31
2023-02-22T02:12:28.986Z,99888.22
2023-02-22T02:15:26.596Z,99894.22
2023-02-22T02:17:56.741Z,99892.16
2023-02-22T02:21:07.659Z,99903.34
2023-02-22T02:23:56.157Z,99919.81
2023-02-22T02:26:45.026Z,99925.88
2023-02-22T02:29:30.486Z,99925.50
2023-02-22T02:32:19.881Z,99928.41
2023-02-22T02:34:51.196Z,99930.09
2023-02-22T02:37:41.423Z,99935.88
2023-02-22T02:41:05.728Z,99946.63
2023-02-22T02:44:03.150Z,99954.63
2023-02-22T02:46:40.236Z,99958.41
2023-02-22T02:49:11.326Z,99973.00
2023-02-22T02:51:42.405Z,99969.03
2023-02-22T02:54:10.099Z,99972.34
2023-02-22T02:56:38.612Z,99974.41
2023-02-22T02:59:23.867Z,99980.72
2023-02-22T03:02:16.499Z,100000.94
2023-02-22T03:04:56.435Z,100010.09
2023-02-22T03:07:45.383Z,100022.94
2023-02-22T03:10:28.019Z,100030.38
2023-02-22T03:13:09.404Z,100041.63
2023-02-22T03:15:49.202Z,100042.75
2023-02-22T03:18:45.582Z,100050.16
2023-02-22T03:21:27.321Z,100047.31
2023-02-22T03:24:10.008Z,100060.94
2023-02-22T03:26:43.635Z,100078.63
2023-02-22T03:29:12.630Z,100081.78
2023-02-22T03:31:43.592Z,100083.09
2023-02-22T03:34:17.385Z,100083.88
2023-02-22T03:36:49.159Z,100099.72
2023-02-22T03:39:17.632Z,100098.84
2023-02-22T03:41:54.312Z,100089.22
2023-02-22T03:44:26.241Z,100109.38
2023-02-22T03:46:56.886Z,100122.25
2023-02-22T03:49:29.948Z,100120.06
2023-02-22T03:51:57.794Z,100125.94
2023-02-22T03:54:27.618Z,100128.88
2023-02-22T03:56:58.846Z,100128.78
2023-02-22T03:59:27.804Z,100125.84
2023-02-22T04:01:55.641Z,100131.94
2023-02-22T04:04:24.675Z,100137.25
2023-02-22T04:06:53.016Z,100147.66
2023-02-22T04:09:23.509Z,100141.59
2023-02-22T04:11:51.508Z,100150.44
2023-02-22T04:14:19.230Z,100142.06
2023-02-22T04:16:46.846Z,100150.28
2023-02-22T04:19:14.603Z,100159.09
2023-02-22T04:21:42.732Z,100169.59
2023-02-22T04:24:17.606Z,100170.56
2023-02-22T04:26:45.647Z,100180.47
2023-02-22T04:29:13.383Z,100180.19
2023-02-22T04:31:44.479Z,100183.50
2023-02-22T04:34:12.955Z,100197.09
2023-02-22T04:36:44.727Z,100204.94
2023-02-22T04:39:13.307Z,100209.59
2023-02-22T04:41:41.059Z,100221.50
2023-02-22T04:44:09.206Z,100239.44
2023-02-22T04:46:37.032Z,100247.25
2023-02-22T04:49:04.732Z,100251.19
2023-02-22T04:51:37.012Z,100254.19
2023-02-22T04:54:12.455Z,100252.91
2023-02-22T04:56:45.005Z,100270.19
2023-02-22T04:59:13.759Z,100267.22
2023-02-22T05:01:44.890Z,100269.47
2023-02-22T05:04:13.170Z,100272.28
2023-02-22T05:06:41.685Z,100280.69
2023-02-22T05:09:09.412Z,100286.06
2023-02-22T05:11:37.090Z,100299.06
2023-02-22T05:14:04.723Z,100314.94
2023-02-22T05:16:34.308Z,100309.44
2023-02-22T05:19:02.506Z,100323.13
2023-02-22T05:21:30.255Z,100334.03
2023-02-22T05:23:58.064Z,100335.59
2023-02-22T05:26:25.811Z,100345.06
2023-02-22T05:28:54.424Z,100356.09
2023-02-22T05:31:22.169Z,100363.63
2023-02-22T05:33:51.151Z,100372.66
2023-02-22T05:36:19.826Z,100373.81
2023-02-22T05:38:47.850Z,100382.06
2023-02-22T05:41:16.161Z,100404.53
2023-02-22T05:43:43.952Z,100412.34
2023-02-22T05:46:11.819Z,100427.88
2023-02-22T05:48:39.851Z,100387.28
2023-02-22T05:51:09.857Z,100432.19
2023-02-22T05:53:37.753Z,100437.59
2023-02-22T05:56:09.707Z,100453.03
2023-02-22T05:58:37.875Z,100458.88
2023-02-22T06:01:05.823Z,100448.56
2023-02-22T06:03:34.042Z,100462.91
2023-02-22T06:06:01.705Z,100460.91
2023-02-22T06:08:29.432Z,100473.69
2023-02-22T06:10:57.546Z,100473.16
2023-02-22T06:13:25.690Z,100484.16
2023-02-22T06:15:53.846Z,100479.97
2023-02-22T06:18:21.642Z,100490.16
2023-02-22T06:20:49.444Z,100497.19
2023-02-22T06:23:17.325Z,100500.69
2023-02-22T06:25:45.844Z,100505.88
2023-02-22T06:28:15.904Z,100508.31
2023-02-22T06:30:43.607Z,100515.00
2023-02-22T06:33:11.623Z,100502.28
2023-02-22T06:35:39.679Z,100520.84
2023-02-22T06:38:08.903Z,100533.75
2023-02-22T06:40:37.324Z,100528.53
2023-02-22T06:43:07.329Z,100559.84
2023-02-22T06:45:35.585Z,100542.47
2023-02-22T06:48:03.457Z,100547.50
2023-02-22T06:50:31.638Z,100546.88
2023-02-22T06:53:03.641Z,100546.66
2023-02-22T06:55:33.909Z,100554.81
2023-02-22T06:58:02.002Z,100560.56
2023-02-22T07:00:31.113Z,100554.47
2023-02-22T07:02:59.316Z,100565.09
2023-02-22T07:05:27.344Z,100560.31
2023-02-22T07:08:03.272Z,100559.09
2023-02-22T07:10:31.804Z,100570.16
2023-02-22T07:13:00.102Z,100588.16
2023-02-22T07:15:30.551Z,100576.44
2023-02-22T07:17:58.662Z,100581.88
2023-02-22T07:20:27.295Z,100585.72
2023-02-22T07:22:55.352Z,100599.34
2023-02-22T07:25:23.789Z,100596.47
2023-02-22T07:27:52.691Z,100607.44
2023-02-22T07:30:25.806Z,100611.94
2023-02-22T07:32:54.891Z,100605.66
2023-02-22T07:35:27.622Z,100607.22
2023-02-22T07:38:00.104Z,100603.41
2023-02-22T07:40:27.986Z,100604.75
2023-02-22T07:43:18.295Z,100614.34
2023-02-22T07:45:46.890Z,100617.75
2023-02-22T07:48:17.120Z,100615.41
2023-02-22T07:50:45.578Z,100612.63
2023-02-22T07:53:18.784Z,100622.63
2023-02-22T07:55:46.618Z,100623.84
2023-02-22T07:58:15.788Z,100627.72
2023-02-22T08:00:48.545Z,100626.66
2023-02-22T08:03:18.867Z,100633.00
2023-02-22T08:05:48.327Z,100640.75
2023-02-22T08:08:19.848Z,100639.28
2023-02-22T08:10:48.375Z,100653.19
2023-02-22T08:13:17.056Z,100652.00
2023-02-22T08:15:44.846Z,100670.19
2023-02-22T08:18:15.376Z,100677.66
2023-02-22T08:20:44.661Z,100700.31
2023-02-22T08:23:12.817Z,100727.56
2023-02-22T08:25:40.593Z,100714.94
2023-02-22T08:28:10.297Z,100719.09
2023-02-22T08:30:40.398Z,100709.75
2023-02-22T08:33:08.477Z,100714.31
2023-02-22T08:35:36.712Z,100699.63
2023-02-22T08:38:05.970Z,100716.94
2023-02-22T08:40:35.996Z,100708.38
2023-02-22T08:43:04.837Z,100715.59
2023-02-22T08:45:33.476Z,100722.56
2023-02-22T08:48:01.706Z,100716.84
2023-02-22T08:50:31.292Z,100725.22
2023-02-22T08:53:00.520Z,100719.25
2023-02-22T08:55:34.770Z,100729.06
2023-02-22T08:58:06.292Z,100730.78
2023-02-22T09:00:34.331Z,100737.16
2023-02-22T09:03:03.489Z,100741.25
2023-02-22T09:05:31.733Z,100734.28
2023-02-22T09:08:00.368Z,100726.69
2023-02-22T09:10:30.469Z,100732.66
2023-02-22T09:13:01.269Z,100740.09
2023-02-22T09:15:30.012Z,100729.38
2023-02-22T09:17:57.811Z,100740.13
2023-02-22T09:20:25.755Z,100752.13
2023-02-22T09:22:54.059Z,100771.06
2023-02-22T09:25:21.979Z,100775.06
2023-02-22T09:27:51.557Z,100790.09
2023-02-22T09:30:23.798Z,100786.59
2023-02-22T09:32:55.791Z,100801.28
2023-02-22T09:35:27.545Z,100803.13
2023-02-22T09:38:00.249Z,100786.97
2023-02-22T09:40:32.381Z,100776.13
2023-02-22T09:43:21.697Z,100780.06
2023-02-22T09:46:12.372Z,100781.47
2023-02-22T09:48:51.160Z,100767.09
2023-02-22T09:51:19.149Z,100771.88
2023-02-22T09:53:48.590Z,100777.56
2023-02-22T09:56:18.854Z,100780.25
2023-02-22T09:58:49.350Z,100775.81
2023-02-22T10:01:28.345Z,100786.16
2023-02-22T10:04:44.562Z,100777.28
2023-02-22T10:07:15.524Z,100781.19
2023-02-22T10:09:49.116Z,100793.28
2023-02-22T10:12:55.349Z,100782.56
2023-02-22T10:15:29.551Z,100785.00
2023-02-22T10:18:15.417Z,100786.84
2023-02-22T10:20:53.066Z,100797.66
2023-02-22T10:23:52.131Z,100800.84
2023-02-22T10:26:25.775Z,100791.78
2023-02-22T10:28:57.341Z,100806.34
2023-02-22T10:31:37.415Z,100799.16
2023-02-22T10:34:30.170Z,100800.16
2023-02-22T10:37:03.510Z,100807.78
2023-02-22T10:39:32.690Z,100796.22
2023-02-22T10:42:06.575Z,100793.31
2023-02-22T10:44:36.426Z,100795.19
2023-02-22T10:47:09.925Z,100810.19
2023-02-22T10:49:42.015Z,100808.53
2023-02-22T10:52:29.495Z,100816.84
2023-02-22T10:55:13.804Z,100815.03
2023-02-22T10:57:42.724Z,100812.44
2023-02-22T11:00:26.592Z,100821.47
2023-02-22T11:03:01.853Z,100822.38
2023-02-22T11:05:37.004Z,100828.44
2023-02-22T11:08:31.031Z,100830.31
2023-02-22T11:11:18.428Z,100819.13
2023-02-22T11:13:47.160Z,100830.69
2023-02-22T11:16:24.475Z,100828.22
2023-02-22T11:18:57.398Z,100830.56
2023-02-22T11:21:25.194Z,100833.84
2023-02-22T11:24:02.287Z,100834.88
2023-02-22T11:26:49.290Z,100843.16
2023-02-22T11:29:34.264Z,100831.38
2023-02-22T11:32:14.467Z,100828.59
2023-02-22T11:34:52.810Z,100842.50
2023-02-22T11:37:22.941Z,100823.50
2023-02-22T11:40:19.748Z,100850.66
2023-02-22T11:42:48.392Z,100832.81
2023-02-22T11:45:23.755Z,100840.94
2023-02-22T11:47:55.744Z,100836.00
2023-02-22T11:50:30.865Z,100826.50
2023-02-22T11:53:17.531Z,100838.84
2023-02-22T11:56:14.211Z,100842.06
2023-02-22T11:58:47.429Z,100849.16
2023-02-22T12:01:24.590Z,100850.09
2023-02-22T12:04:30.174Z,100843.81
2023-02-22T12:07:10.356Z,100838.72
2023-02-22T12:09:43.155Z,100849.63
2023-02-22T12:12:22.756Z,100855.78
2023-02-22T12:14:57.358Z,100855.97
2023-02-22T12:18:06.638Z,100856.44
2023-02-22T12:20:41.765Z,100864.00
2023-02-22T12:23:30.172Z,100869.56
2023-02-22T12:26:01.530Z,100872.22
2023-02-22T12:28:36.279Z,100874.34
2023-02-22T12:31:11.543Z,100874.75
2023-02-22T12:33:46.882Z,100871.22
2023-02-22T12:36:16.287Z,100869.78
2023-02-22T12:38:44.776Z,100882.31
2023-02-22T12:41:34.900Z,100877.59
2023-02-22T12:44:10.554Z,100884.34
2023-02-22T12:46:45.120Z,100880.53
2023-02-22T12:49:18.242Z,100891.78
2023-02-22T12:51:52.165Z,100886.13
2023-02-22T12:54:25.906Z,100891.38
2023-02-22T12:56:55.411Z,100888.28
2023-02-22T12:59:28.992Z,100893.72
2023-02-22T13:02:45.177Z,100908.78
2023-02-22T13:05:17.988Z,100917.47
2023-02-22T13:08:07.547Z,100926.09
2023-02-22T13:10:37.866Z,100925.59
2023-02-22T13:13:24.342Z,100914.28
2023-02-22T13:16:08.249Z,100914.31
2023-02-22T13:18:41.364Z,100914.97
2023-02-22T13:21:23.295Z,100932.19
2023-02-22T13:24:05.470Z,100914.81
2023-02-22T13:26:45.240Z,100937.28
2023-02-22T13:29:28.552Z,100919.19
2023-02-22T13:32:18.930Z,100925.47
2023-02-22T13:34:51.463Z,100929.00
2023-02-22T13:37:25.117Z,100942.81
2023-02-22T13:40:09.849Z,100941.06
2023-02-22T13:42:37.841Z,100937.34
2023-02-22T13:45:07.974Z,100939.53
2023-02-22T13:47:51.277Z,100968.47
2023-02-22T13:50:31.376Z,100952.44
2023-02-22T13:53:00.220Z,100951.94
2023-02-22T13:55:31.899Z,100966.03
2023-02-22T13:58:07.393Z,100964.94
2023-02-22T14:00:44.839Z,100965.56
2023-02-22T14:03:15.715Z,100964.56
2023-02-22T14:05:43.327Z,100977.06
2023-02-22T14:08:18.921Z,100972.19
2023-02-22T14:10:55.266Z,100969.81
2023-02-22T14:13:29.396Z,100983.78
2023-02-22T14:16:00.462Z,100984.84
2023-02-22T14:18:42.039Z,100975.94
2023-02-22T14:21:36.117Z,100996.84
2023-02-22T14:24:14.739Z,101005.78
2023-02-22T14:27:03.634Z,100989.50
2023-02-22T14:29:31.345Z,100994.00
2023-02-22T14:32:02.140Z,100997.59
2023-02-22T14:34:58.297Z,101002.41
2023-02-22T14:37:31.914Z,101005.44
2023-02-22T14:40:20.876Z,101011.53
2023-02-22T14:42:51.086Z,101022.41
2023-02-22T14:45:29.261Z,101024.84
2023-02-22T14:48:11.849Z,101035.09
2023-02-22T14:50:40.216Z,101023.81
2023-02-22T14:53:12.428Z,101022.72
2023-02-22T14:55:43.721Z,101025.78
2023-02-22T14:58:22.516Z,101026.53
2023-02-22T15:00:53.033Z,101034.66
2023-02-22T15:03:24.156Z,101040.97
2023-02-22T15:05:54.997Z,101036.56
2023-02-22T15:08:28.481Z,101046.69
2023-02-22T15:10:56.524Z,101037.53
2023-02-22T15:13:26.262Z,101035.44
2023-02-22T15:16:02.438Z,101042.00
2023-02-22T15:18:41.732Z,101051.19
2023-02-22T15:21:13.462Z,101056.50
2023-02-22T15:23:55.281Z,101061.75
2023-02-22T15:27:00.325Z,101068.16
2023-02-22T15:29:35.384Z,101073.94
2023-02-22T15:32:20.925Z,101078.38
2023-02-22T15:34:48.665Z,101087.38
2023-02-22T15:37:25.530Z,101087.69
2023-02-22T15:39:59.693Z,101088.63
2023-02-22T15:42:29.809Z,101094.34
2023-02-22T15:44:58.193Z,101098.13
2023-02-22T15:47:27.726Z,101101.22
2023-02-22T15:50:17.250Z,101115.84
2023-02-22T15:52:53.612Z,101121.47
2023-02-22T15:55:32.797Z,101116.00
2023-02-22T15:58:11.790Z,101137.47
2023-02-22T16:00:41.942Z,101133.28
2023-02-22T16:03:16.909Z,101139.31
2023-02-22T16:05:48.814Z,101142.63
2023-02-22T16:08:20.966Z,101144.44
2023-02-22T16:10:59.134Z,101153.88
2023-02-22T16:13:32.519Z,101159.34
2023-02-22T16:16:30.846Z,101156.28
2023-02-22T16:19:27.882Z,101157.34
2023-02-22T16:22:03.042Z,101171.38
2023-02-22T16:24:35.644Z,101171.19
2023-02-22T16:27:06.259Z,101175.47
2023-02-22T16:29:35.149Z,101172.34
2023-02-22T16:32:04.162Z,101174.06
2023-02-22T16:34:31.847Z,101173.66
2023-02-22T16:37:01.425Z,101173.78
2023-02-22T16:39:30.237Z,101173.00
2023-02-22T16:41:59.270Z,101178.16
2023-02-22T16:44:27.477Z,101179.13
2023-02-22T16:46:56.413Z,101182.00
2023-02-22T16:49:24.126Z,101183.31
2023-02-22T16:51:55.840Z,101187.06
2023-02-22T16:54:29.177Z,101193.28
2023-02-22T16:56:57.511Z,101193.59
2023-02-22T16:59:27.528Z,101203.81
2023-02-22T17:01:58.825Z,101194.59
2023-02-22T17:04:26.608Z,101193.34
2023-02-22T17:06:54.206Z,101198.16
2023-02-22T17:09:21.818Z,101200.00
2023-02-22T17:11:52.243Z,101205.69
2023-02-22T17:14:23.432Z,101207.28
2023-02-22T17:16:52.156Z,101212.50
2023-02-22T17:19:22.191Z,101207.09
2023-02-22T17:21:50.207Z,101206.50
2023-02-22T17:24:20.346Z,101209.69
2023-02-22T17:26:48.090Z,101218.69
2023-02-22T17:29:17.807Z,101220.56
2023-02-22T17:31:45.663Z,101227.91
2023-02-22T17:34:13.258Z,101237.53
2023-02-22T17:36:40.788Z,101222.31
2023-02-22T17:39:10.734Z,101229.75
2023-02-22T17:41:40.447Z,101224.72
2023-02-22T17:44:08.552Z,101229.75
2023-02-22T17:46:37.566Z,101232.75
2023-02-22T17:49:05.193Z,101231.25
2023-02-22T17:51:33.061Z,101241.94
2023-02-22T17:54:00.708Z,101244.38
2023-02-22T17:56:29.006Z,101244.25
2023-02-22T17:58:57.834Z,101243.69
2023-02-22T18:01:31.002Z,101254.78
2023-02-22T18:03:59.930Z,101264.59
2023-02-22T18:06:30.011Z,101253.84
2023-02-22T18:08:59.092Z,101267.03
2023-02-22T18:11:28.212Z,101269.91
2023-02-22T18:13:56.837Z,101271.16
2023-02-22T18:16:28.385Z,101269.66
2023-02-22T18:18:56.647Z,101265.34
2023-02-22T18:21:24.320Z,101268.59
2023-02-22T18:23:51.908Z,101273.66
2023-02-22T18:26:20.610Z,101271.16
2023-02-22T18:28:51.395Z,101276.06
2023-02-22T18:31:19.583Z,101270.78
2023-02-22T18:33:48.872Z,101280.75
2023-02-22T18:36:17.473Z,101283.72
2023-02-22T18:38:45.210Z,101274.53
2023-02-22T18:41:14.618Z,101284.78
2023-02-22T18:43:42.274Z,101287.56
2023-02-22T18:46:18.333Z,101289.84
2023-02-22T18:48:47.019Z,101295.66
2023-02-22T18:51:19.769Z,101296.81
2023-02-22T18:53:50.078Z,101297.50
2023-02-22T18:56:22.266Z,101302.75
2023-02-22T18:58:53.991Z,101304.09
2023-02-22T19:01:22.284Z,101306.47
2023-02-22T19:03:51.705Z,101317.47
2023-02-22T19:06:19.941Z,101320.41
2023-02-22T19:08:48.820Z,101322.59
2023-02-22T19:11:19.308Z,101316.59
2023-02-22T19:13:47.725Z,101327.19
2023-02-22T19:16:19.967Z,101328.44
2023-02-22T19:18:48.788Z,101332.47
2023-02-22T19:21:16.609Z,101335.91
2023-02-22T19:23:48.274Z,101332.72
2023-02-22T19:26:24.086Z,101341.84
2023-02-22T19:28:55.668Z,101345.16
2023-02-22T19:31:26.652Z,101342.69
2023-02-22T19:33:54.462Z,101346.53
2023-02-22T19:36:25.309Z,101347.69
2023-02-22T19:38:53.065Z,101337.25
2023-02-22T19:41:22.010Z,101343.53
2023-02-22T19:43:51.377Z,101341.84
2023-02-22T19:46:19.009Z,101350.03
2023-02-22T19:48:46.752Z,101346.91
2023-02-22T19:51:16.045Z,101360.09
2023-02-22T19:53:44.040Z,101361.88
2023-02-22T19:56:16.915Z,101357.69
2023-02-22T19:58:46.224Z,101354.25
2023-02-22T20:01:24.764Z,101358.47
2023-02-22T20:03:54.590Z,101358.06
2023-02-22T20:06:28.442Z,101357.31
2023-02-22T20:08:56.094Z,101365.50
2023-02-22T20:11:24.316Z,101366.38
2023-02-22T20:13:52.898Z,101365.28
2023-02-22T20:16:20.486Z,101362.25
2023-02-22T20:18:48.402Z,101370.38
2023-02-22T20:21:20.500Z,101382.16
2023-02-22T20:23:48.200Z,101377.81
2023-02-22T20:26:25.182Z,101384.91
2023-02-22T20:28:52.859Z,101398.91
2023-02-22T20:31:21.097Z,101386.41
2023-02-22T20:33:52.479Z,101387.72
2023-02-22T20:36:22.255Z,101401.06
2023-02-22T20:38:57.707Z,101396.34
2023-02-22T20:41:26.951Z,101399.19
2023-02-22T20:43:55.346Z,101393.94
2023-02-22T20:46:23.927Z,101394.88
2023-02-22T20:48:55.828Z,101394.47
2023-02-22T20:51:23.487Z,101391.34
2023-02-22T20:53:51.050Z,101404.09
2023-02-22T20:56:20.339Z,101401.69
2023-02-22T20:58:47.838Z,101399.13
2023-02-22T21:01:19.766Z,101400.16
2023-02-22T21:03:48.232Z,101399.75
2023-02-22T21:06:21.588Z,101406.19
2023-02-22T21:08:53.759Z,101409.13
2023-02-22T21:11:21.976Z,101401.91
2023-02-22T21:13:49.679Z,101408.94
2023-02-22T21:16:25.323Z,101398.41
2023-02-22T21:18:54.174Z,101412.97
2023-02-22T21:21:22.183Z,101417.06
2023-02-22T21:23:51.026Z,101419.63
2023-02-22T21:26:29.777Z,101422.19
2023-02-22T21:29:03.520Z,101439.59
2023-02-22T21:31:31.768Z,101431.50
2023-02-22T21:34:00.075Z,101427.34
2023-02-22T21:36:27.910Z,101433.91
2023-02-22T21:38:59.061Z,101435.47
2023-02-22T21:41:29.002Z,101428.31
2023-02-22T21:43:57.311Z,101432.34
2023-02-22T21:46:25.531Z,101432.00
2023-02-22T21:48:53.206Z,101435.13
2023-02-22T21:51:23.471Z,101443.88
2023-02-22T21:53:52.492Z,101434.16
2023-02-22T21:56:27.344Z,101437.31
2023-02-22T21:59:11.737Z,101434.22
2023-02-22T22:01:47.302Z,101437.00
2023-02-22T22:04:19.174Z,101437.09
2023-02-22T22:06:48.837Z,101431.75
2023-02-22T22:09:20.034Z,101437.03
2023-02-22T22:11:53.493Z,101442.03
2023-02-22T22:14:23.241Z,101438.44
2023-02-22T22:16:52.882Z,101443.31
2023-02-22T22:19:20.767Z,101445.88
2023-02-22T22:21:50.179Z,101448.28
2023-02-22T22:24:21.222Z,101451.44
2023-02-22T22:26:54.933Z,101455.25
2023-02-22T22:29:28.616Z,101454.00
2023-02-22T22:31:56.759Z,101457.69
2023-02-22T22:34:24.503Z,101458.88
2023-02-22T22:36:52.844Z,101464.22
2023-02-22T22:39:21.214Z,101467.13
2023-02-22T22:41:49.167Z,101468.97
2023-02-22T22:44:22.449Z,101472.84
2023-02-22T22:46:53.723Z,101466.16
2023-02-22T22:49:23.578Z,101471.75
2023-02-22T22:51:51.360Z,101467.81
2023-02-22T22:54:20.590Z,101464.75
2023-02-22T22:56:48.537Z,101474.25
2023-02-22T22:59:16.309Z,101473.63
2023-02-22T23:01:45.062Z,101472.75
2023-02-22T23:04:16.530Z,101476.06
2023-02-22T23:06:46.485Z,101482.47
2023-02-22T23:09:19.072Z,101483.03
2023-02-22T23:11:50.967Z,101492.88
2023-02-22T23:14:37.889Z,101492.47
2023-02-22T23:17:05.876Z,101491.88
2023-02-22T23:19:36.403Z,101495.09
2023-02-22T23:22:05.570Z,101501.22
2023-02-22T23:24:36.262Z,101498.00
2023-02-22T23:27:07.333Z,101514.63
2023-02-22T23:29:37.544Z,101510.47
2023-02-22T23:32:08.858Z,101513.56
2023-02-22T23:34:36.969Z,101518.97
2023-02-22T23:37:10.408Z,101524.41
2023-02-22T23:39:38.015Z,101518.84
2023-02-22T23:42:10.166Z,101523.59
2023-02-22T23:44:39.872Z,101526.88
2023-02-22T23:47:07.411Z,101529.94
2023-02-22T23:49:38.651Z,101529.16
2023-02-22T23:52:06.468Z,101537.16
2023-02-22T23:54:36.920Z,101537.56
2023-02-22T23:57:04.997Z,101542.72
2023-02-22T23:59:33.032Z,101546.94
